createdAt,value
2018-01-11T00:01:50.233Z,99.90
2018-01-11T00:04:18.700Z,99.90
2018-01-11T00:06:47.135Z,99.90
2018-01-11T00:09:14.824Z,99.90
2018-01-11T00:11:42.454Z,99.90
2018-01-11T00:14:10.093Z,99.90
2018-01-11T00:16:38.526Z,99.90
2018-01-11T00:19:06.169Z,99.90
2018-01-11T00:21:33.823Z,99.90
2018-01-11T00:24:01.439Z,99.90
2018-01-11T00:26:29.126Z,99.90
2018-01-11T00:28:57.544Z,99.90
2018-01-11T00:31:25.226Z,99.90
2018-01-11T00:33:52.842Z,99.90
2018-01-11T00:36:20.515Z,99.90
2018-01-11T00:38:48.144Z,99.90
2018-01-11T00:41:16.610Z,99.90
2018-01-11T00:43:44.285Z,99.90
2018-01-11T00:46:12.655Z,99.90
2018-01-11T00:48:41.202Z,99.90
2018-01-11T00:51:08.861Z,99.90
2018-01-11T00:53:36.731Z,99.90
2018-01-11T00:56:04.495Z,99.90
2018-01-11T00:58:32.130Z,99.90
2018-01-11T01:00:59.855Z,99.90
2018-01-11T01:03:28.403Z,99.90
2018-01-11T01:05:56.160Z,99.90
2018-01-11T01:08:23.771Z,99.90
2018-01-11T01:10:51.400Z,99.90
2018-01-11T01:13:19.031Z,99.90
2018-01-11T01:15:46.700Z,99.90
2018-01-11T01:18:14.405Z,99.90
2018-01-11T01:20:42.060Z,99.90
2018-01-11T01:23:09.727Z,99.90
2018-01-11T01:25:37.438Z,99.90
2018-01-11T01:28:05.118Z,99.90
2018-01-11T01:30:32.736Z,99.90
2018-01-11T01:33:01.135Z,99.90
2018-01-11T01:35:28.826Z,99.90
2018-01-11T01:37:56.537Z,99.90
2018-01-11T01:40:25.012Z,99.90
2018-01-11T01:42:53.461Z,99.90
2018-01-11T01:45:21.162Z,99.90
2018-01-11T01:47:49.572Z,99.90
2018-01-11T01:50:17.279Z,99.90
2018-01-11T01:52:44.924Z,99.90
2018-01-11T01:55:12.552Z,99.90
2018-01-11T01:57:40.269Z,99.90
2018-01-11T02:00:08.044Z,99.90
2018-01-11T02:02:35.869Z,99.90
2018-01-11T02:05:04.438Z,99.90
2018-01-11T02:07:32.918Z,99.90
2018-01-11T02:10:00.696Z,99.90
2018-01-11T02:12:29.212Z,99.90
2018-01-11T02:14:57.741Z,99.90
2018-01-11T02:17:25.531Z,99.90
2018-01-11T02:19:53.318Z,99.90
2018-01-11T02:22:21.822Z,99.90
2018-01-11T02:24:49.638Z,99.90
2018-01-11T02:27:17.415Z,99.90
2018-01-11T02:29:45.148Z,99.90
2018-01-11T02:32:12.864Z,99.90
2018-01-11T02:34:40.687Z,99.90
2018-01-11T02:37:08.457Z,99.90
2018-01-11T02:39:36.241Z,99.90
2018-01-11T02:42:03.955Z,99.90
2018-01-11T02:44:31.715Z,99.90
2018-01-11T02:46:59.466Z,99.90
2018-01-11T02:49:27.994Z,99.90
2018-01-11T02:51:55.690Z,99.90
2018-01-11T02:54:23.398Z,99.90
2018-01-11T02:56:51.094Z,99.90
2018-01-11T02:59:18.740Z,99.90
2018-01-11T03:01:46.456Z,99.90
2018-01-11T03:04:14.909Z,99.90
2018-01-11T03:06:42.586Z,99.90
2018-01-11T03:09:11.057Z,99.90
2018-01-11T03:11:39.530Z,99.90
2018-01-11T03:14:08.226Z,99.90
2018-01-11T03:16:35.884Z,99.90
2018-01-11T03:19:03.562Z,99.90
2018-01-11T03:21:32.003Z,99.90
2018-01-11T03:23:59.648Z,99.90
2018-01-11T03:26:27.267Z,99.90
2018-01-11T03:28:55.687Z,99.90
2018-01-11T03:31:23.385Z,99.90
2018-01-11T03:33:51.093Z,99.90
2018-01-11T03:36:19.555Z,99.90
2018-01-11T03:38:48.027Z,99.90
2018-01-11T03:41:15.715Z,99.90
2018-01-11T03:43:43.720Z,99.90
2018-01-11T03:46:11.370Z,99.90
2018-01-11T03:48:38.992Z,99.90
2018-01-11T03:51:07.420Z,99.90
2018-01-11T03:53:35.055Z,99.90
2018-01-11T03:56:02.740Z,99.90
2018-01-11T03:58:30.436Z,99.90
2018-01-11T04:00:59.105Z,99.90
2018-01-11T04:03:26.818Z,99.90
2018-01-11T04:05:54.449Z,99.90
2018-01-11T04:08:23.047Z,99.90
2018-01-11T04:10:51.696Z,99.90
2018-01-11T04:13:19.341Z,99.90
2018-01-11T04:15:47.018Z,99.90
2018-01-11T04:18:14.707Z,99.90
2018-01-11T04:20:43.145Z,99.90
2018-01-11T04:23:10.850Z,99.90
2018-01-11T04:25:38.532Z,99.90
2018-01-11T04:28:07.008Z,99.90
2018-01-11T04:30:35.440Z,99.90
2018-01-11T04:33:03.116Z,99.90
2018-01-11T04:35:30.810Z,99.90
2018-01-11T04:37:59.271Z,99.90
2018-01-11T04:40:26.997Z,99.90
2018-01-11T04:42:54.685Z,99.90
2018-01-11T04:45:22.650Z,99.90
2018-01-11T04:47:50.346Z,99.90
2018-01-11T04:50:18.830Z,99.90
2018-01-11T04:52:47.288Z,99.90
2018-01-11T04:55:14.980Z,99.90
2018-01-11T04:57:43.417Z,99.90
2018-01-11T05:00:11.109Z,99.90
2018-01-11T05:02:39.656Z,99.90
2018-01-11T05:05:07.339Z,99.90
2018-01-11T05:07:35.066Z,99.90
2018-01-11T05:10:02.713Z,99.90
2018-01-11T05:12:30.361Z,99.90
2018-01-11T05:14:58.066Z,99.90
2018-01-11T05:17:25.743Z,99.90
2018-01-11T05:19:53.486Z,99.90
2018-01-11T05:22:21.926Z,99.90
2018-01-11T05:24:49.566Z,99.90
2018-01-11T05:27:18.061Z,99.90
2018-01-11T05:29:46.507Z,99.90
2018-01-11T05:32:14.160Z,99.90
2018-01-11T05:34:41.832Z,99.90
2018-01-11T05:37:09.683Z,99.90
2018-01-11T05:39:37.444Z,99.90
2018-01-11T05:42:05.155Z,99.90
2018-01-11T05:44:33.797Z,99.90
2018-01-11T05:47:01.579Z,99.90
2018-01-11T05:49:30.009Z,99.90
2018-01-11T05:51:57.667Z,99.90
2018-01-11T05:54:25.390Z,99.90
2018-01-11T05:56:53.233Z,99.90
2018-01-11T05:59:21.014Z,99.90
2018-01-11T06:01:48.864Z,99.90
2018-01-11T06:04:16.493Z,99.90
2018-01-11T06:06:44.233Z,99.90
2018-01-11T06:09:12.663Z,99.90
2018-01-11T06:11:40.357Z,99.90
2018-01-11T06:14:09.632Z,99.90
2018-01-11T06:16:37.391Z,99.90
2018-01-11T06:19:05.037Z,99.90
2018-01-11T06:21:32.824Z,99.90
2018-01-11T06:24:00.690Z,99.90
2018-01-11T06:26:28.556Z,99.90
2018-01-11T06:28:56.322Z,99.90
2018-01-11T06:31:24.006Z,99.90
2018-01-11T06:33:51.703Z,99.90
2018-01-11T06:36:19.409Z,99.90
2018-01-11T06:38:47.135Z,99.90
2018-01-11T06:41:15.042Z,99.90
2018-01-11T06:43:42.726Z,99.90
2018-01-11T06:46:11.209Z,99.90
2018-01-11T06:48:39.767Z,99.90
2018-01-11T06:51:07.482Z,99.90
2018-01-11T06:53:35.234Z,99.90
2018-01-11T06:56:03.661Z,99.90
2018-01-11T06:58:31.436Z,99.90
2018-01-11T07:00:59.410Z,99.90
2018-01-11T07:03:28.696Z,99.90
2018-01-11T07:05:56.569Z,99.90
2018-01-11T07:08:24.334Z,99.90
2018-01-11T07:10:52.200Z,99.90
2018-01-11T07:13:20.562Z,99.90
2018-01-11T07:15:48.264Z,99.90
2018-01-11T07:18:15.938Z,99.90
2018-01-11T07:20:44.405Z,99.90
2018-01-11T07:23:12.117Z,99.90
2018-01-11T07:25:39.799Z,99.90
2018-01-11T07:28:07.476Z,99.90
2018-01-11T07:30:35.721Z,99.90
2018-01-11T07:33:03.408Z,99.90
2018-01-11T07:35:31.079Z,99.90
2018-01-11T07:37:59.475Z,99.90
2018-01-11T07:40:27.958Z,99.90
2018-01-11T07:42:56.436Z,99.90
2018-01-11T07:45:24.995Z,99.90
2018-01-11T07:47:52.684Z,99.90
2018-01-11T07:50:20.357Z,99.90
2018-01-11T07:52:48.770Z,99.90
2018-01-11T07:55:16.408Z,99.90
2018-01-11T07:57:44.832Z,99.90
2018-01-11T08:00:12.533Z,99.90
2018-01-11T08:02:40.936Z,99.90
2018-01-11T08:05:08.631Z,99.90
2018-01-11T08:07:36.295Z,99.90
2018-01-11T08:10:04.009Z,99.90
2018-01-11T08:12:32.437Z,99.90
2018-01-11T08:15:00.116Z,99.90
2018-01-11T08:17:27.760Z,99.90
2018-01-11T08:19:55.447Z,99.90
2018-01-11T08:22:23.192Z,99.90
2018-01-11T08:24:50.855Z,99.90
2018-01-11T08:27:18.549Z,99.90
2018-01-11T08:29:47.039Z,99.90
2018-01-11T08:32:15.508Z,99.90
2018-01-11T08:34:43.208Z,99.90
2018-01-11T08:37:10.894Z,99.90
2018-01-11T08:39:38.528Z,99.90
2018-01-11T08:42:06.252Z,99.90
2018-01-11T08:44:33.942Z,99.90
2018-01-11T08:47:02.415Z,99.90
2018-01-11T08:49:30.906Z,99.90
2018-01-11T08:51:59.367Z,99.90
2018-01-11T08:54:27.058Z,99.90
2018-01-11T08:56:54.772Z,99.90
2018-01-11T08:59:22.473Z,99.90
2018-01-11T09:01:51.066Z,99.90
2018-01-11T09:04:18.842Z,99.90
2018-01-11T09:06:46.615Z,99.90
2018-01-11T09:09:14.366Z,99.90
2018-01-11T09:11:42.147Z,99.90
2018-01-11T09:14:09.913Z,99.90
2018-01-11T09:16:37.624Z,99.90
2018-01-11T09:19:05.300Z,99.90
2018-01-11T09:21:33.764Z,99.90
2018-01-11T09:24:01.469Z,99.90
2018-01-11T09:26:29.120Z,99.90
2018-01-11T09:28:56.779Z,99.90
2018-01-11T09:31:24.477Z,99.90
2018-01-11T09:33:52.125Z,99.90
2018-01-11T09:36:19.801Z,99.90
2018-01-11T09:38:47.439Z,99.90
2018-01-11T09:41:15.665Z,99.90
2018-01-11T09:43:43.334Z,99.90
2018-01-11T09:46:11.021Z,99.90
2018-01-11T09:48:39.475Z,99.90
2018-01-11T09:51:07.176Z,99.90
2018-01-11T09:53:34.876Z,99.90
2018-01-11T09:56:02.561Z,99.90
2018-01-11T09:58:30.194Z,99.90
2018-01-11T10:00:57.875Z,99.90
2018-01-11T10:03:25.538Z,99.90
2018-01-11T10:05:53.202Z,99.90
2018-01-11T10:08:20.929Z,99.90
2018-01-11T10:10:48.618Z,99.90
2018-01-11T10:13:16.264Z,99.90
2018-01-11T10:15:43.924Z,99.90
2018-01-11T10:18:11.612Z,99.90
2018-01-11T10:20:39.489Z,99.90
2018-01-11T10:23:07.333Z,99.90
2018-01-11T10:25:35.096Z,99.90
2018-01-11T10:28:03.168Z,99.90
2018-01-11T10:30:30.932Z,99.90
2018-01-11T10:32:58.689Z,99.90
2018-01-11T10:35:26.381Z,99.90
2018-01-11T10:37:54.872Z,99.00
2018-01-11T10:40:23.421Z,98.10
2018-01-11T10:42:51.108Z,98.10
2018-01-11T10:45:18.950Z,96.80
2018-01-11T10:47:46.579Z,96.10
2018-01-11T10:50:14.236Z,96.10
2018-01-11T10:52:41.938Z,96.30
2018-01-11T10:55:09.701Z,96.30
2018-01-11T10:57:37.567Z,96.40
2018-01-11T11:00:05.200Z,96.50
2018-01-11T11:02:38.629Z,96.00
2018-01-11T11:05:06.860Z,95.70
2018-01-11T11:07:34.662Z,96.50
2018-01-11T11:10:02.527Z,96.60
2018-01-11T11:12:31.156Z,96.90
2018-01-11T11:14:59.099Z,96.90
2018-01-11T11:17:26.950Z,96.40
2018-01-11T11:19:56.160Z,95.80
2018-01-11T11:22:24.009Z,95.80
2018-01-11T11:24:51.640Z,95.40
2018-01-11T11:27:19.321Z,95.20
2018-01-11T11:29:47.021Z,95.10
2018-01-11T11:32:14.971Z,95.50
2018-01-11T11:34:42.734Z,95.40
2018-01-11T11:37:10.603Z,95.40
2018-01-11T11:39:38.473Z,94.50
2018-01-11T11:42:06.171Z,94.60
2018-01-11T11:44:34.854Z,94.40
2018-01-11T11:47:03.398Z,94.50
2018-01-11T11:49:31.188Z,94.50
2018-01-11T11:51:58.923Z,93.60
2018-01-11T11:54:26.615Z,93.30
2018-01-11T11:59:46.486Z,92.30
2018-01-11T12:02:14.256Z,92.30
2018-01-11T12:04:42.022Z,92.20
2018-01-11T12:07:09.877Z,92.10
2018-01-11T12:09:37.507Z,91.90
2018-01-11T12:12:05.313Z,91.50
2018-01-11T12:14:33.178Z,90.80
2018-01-11T12:17:01.177Z,90.30
2018-01-11T12:19:29.013Z,90.50
2018-01-11T12:21:56.879Z,90.20
2018-01-11T12:24:24.645Z,90.10
2018-01-11T12:26:52.509Z,89.70
2018-01-11T12:29:20.276Z,89.90
2018-01-11T12:31:48.040Z,88.90
2018-01-11T12:34:15.726Z,88.60
2018-01-11T12:36:43.567Z,88.10
2018-01-11T12:39:11.272Z,89.00
2018-01-11T12:41:39.737Z,88.30
2018-01-11T12:44:07.441Z,88.30
2018-01-11T12:46:35.151Z,87.90
2018-01-11T12:49:03.002Z,87.90
2018-01-11T12:51:30.798Z,87.00
2018-01-11T12:53:59.279Z,85.10
2018-01-11T12:56:26.923Z,85.00
2018-01-11T12:58:54.777Z,84.90
2018-01-11T13:01:22.652Z,83.10
2018-01-11T13:03:50.510Z,81.60
2018-01-11T13:06:18.276Z,80.70
2018-01-11T13:08:46.038Z,80.50
2018-01-11T13:11:13.801Z,80.30
2018-01-11T13:13:41.566Z,79.00
2018-01-11T13:16:09.432Z,76.90
2018-01-11T13:18:37.299Z,77.30
2018-01-11T13:21:04.938Z,75.70
2018-01-11T13:23:32.726Z,76.80
2018-01-11T13:26:00.592Z,76.20
2018-01-11T13:28:28.222Z,76.80
2018-01-11T13:30:56.013Z,76.50
2018-01-11T13:33:23.776Z,77.10
2018-01-11T13:35:51.487Z,76.80
2018-01-11T13:38:19.885Z,78.10
2018-01-11T13:40:47.682Z,78.00
2018-01-11T13:43:15.573Z,79.90
2018-01-11T13:45:43.244Z,80.10
2018-01-11T13:48:12.723Z,82.20
2018-01-11T13:50:40.589Z,82.20
2018-01-11T13:53:08.397Z,81.90
2018-01-11T13:55:36.220Z,80.70
2018-01-11T13:58:03.898Z,82.60
2018-01-11T14:00:31.750Z,80.70
2018-01-11T14:02:59.441Z,80.90
2018-01-11T14:05:27.148Z,79.90
2018-01-11T14:07:54.854Z,80.80
2018-01-11T14:10:22.506Z,79.70
2018-01-11T14:12:50.365Z,80.00
2018-01-11T14:15:18.028Z,79.90
2018-01-11T14:17:45.652Z,79.70
2018-01-11T14:20:13.298Z,80.50
2018-01-11T14:22:41.936Z,78.70
2018-01-11T14:25:09.702Z,78.70
2018-01-11T14:27:37.464Z,80.60
2018-01-11T14:30:05.337Z,81.20
2018-01-11T14:32:33.033Z,83.20
2018-01-11T14:35:01.683Z,85.20
2018-01-11T14:37:29.307Z,85.00
2018-01-11T14:39:56.981Z,85.00
2018-01-11T14:42:24.767Z,85.30
2018-01-11T14:44:52.530Z,85.70
2018-01-11T14:47:20.219Z,85.80
2018-01-11T14:49:47.911Z,87.20
2018-01-11T14:52:15.556Z,87.70
2018-01-11T14:54:43.985Z,89.40
2018-01-11T14:57:11.662Z,89.30
2018-01-11T14:59:39.802Z,90.00
2018-01-11T15:02:07.488Z,90.30
2018-01-11T15:04:35.185Z,91.00
2018-01-11T15:07:02.869Z,91.40
2018-01-11T15:09:31.324Z,91.70
2018-01-11T15:11:58.986Z,91.70
2018-01-11T15:14:26.627Z,91.80
2018-01-11T15:16:54.299Z,92.30
2018-01-11T15:19:21.952Z,92.70
2018-01-11T15:21:49.632Z,92.90
2018-01-11T15:24:17.292Z,93.10
2018-01-11T15:26:44.985Z,93.50
2018-01-11T15:29:13.403Z,94.80
2018-01-11T15:31:41.103Z,94.80
2018-01-11T15:34:08.923Z,95.40
2018-01-11T15:36:36.623Z,95.90
2018-01-11T15:39:04.303Z,96.60
2018-01-11T15:41:32.726Z,97.50
2018-01-11T15:44:00.381Z,97.50
2018-01-11T15:46:28.040Z,97.90
2018-01-11T15:48:55.728Z,98.20
2018-01-11T15:51:23.452Z,98.60
2018-01-11T15:53:51.254Z,99.00
2018-01-11T15:56:18.958Z,99.90
2018-01-11T15:58:46.706Z,99.90
2018-01-11T16:01:15.857Z,99.90
2018-01-11T16:03:43.518Z,99.90
2018-01-11T16:06:11.157Z,99.90
2018-01-11T16:08:39.624Z,99.90
2018-01-11T16:11:08.064Z,99.90
2018-01-11T16:13:35.689Z,99.90
2018-01-11T16:16:03.415Z,99.90
2018-01-11T16:18:31.061Z,99.90
2018-01-11T16:20:58.736Z,99.90
2018-01-11T16:23:26.392Z,99.90
2018-01-11T16:25:54.103Z,99.90
2018-01-11T16:28:21.754Z,99.90
2018-01-11T16:30:50.158Z,99.90
2018-01-11T16:33:17.872Z,99.90
2018-01-11T16:35:45.562Z,99.90
2018-01-11T16:38:13.261Z,99.90
2018-01-11T16:40:40.929Z,99.90
2018-01-11T16:43:09.372Z,99.90
2018-01-11T16:45:37.009Z,99.90
2018-01-11T16:48:05.925Z,99.90
2018-01-11T16:50:33.698Z,99.90
2018-01-11T16:53:01.760Z,99.90
2018-01-11T16:55:29.497Z,99.90
2018-01-11T16:57:57.939Z,99.90
2018-01-11T17:00:25.601Z,99.90
2018-01-11T17:02:53.289Z,99.90
2018-01-11T17:05:20.972Z,99.90
2018-01-11T17:07:49.629Z,99.90
2018-01-11T17:10:17.335Z,99.90
2018-01-11T17:12:45.745Z,99.90
2018-01-11T17:15:13.525Z,99.90
2018-01-11T17:17:41.235Z,99.90
2018-01-11T17:20:09.694Z,99.90
2018-01-11T17:22:38.136Z,99.90
2018-01-11T17:25:05.801Z,99.90
2018-01-11T17:27:33.670Z,99.90
2018-01-11T17:30:01.385Z,99.90
2018-01-11T17:32:29.037Z,99.90
2018-01-11T17:34:57.512Z,99.90
2018-01-11T17:37:25.983Z,99.90
2018-01-11T17:39:53.648Z,99.90
2018-01-11T17:42:21.327Z,99.90
2018-01-11T17:44:49.795Z,99.90
2018-01-11T17:47:17.509Z,99.90
2018-01-11T17:49:45.217Z,99.90
2018-01-11T17:52:12.998Z,99.90
2018-01-11T17:54:41.491Z,99.90
2018-01-11T17:57:09.204Z,99.90
2018-01-11T17:59:36.907Z,99.90
2018-01-11T18:02:05.355Z,99.90
2018-01-11T18:04:33.109Z,99.90
2018-01-11T18:07:00.756Z,99.90
2018-01-11T18:09:28.405Z,99.90
2018-01-11T18:11:56.480Z,99.90
2018-01-11T18:14:24.118Z,99.90
2018-01-11T18:16:51.766Z,99.90
2018-01-11T18:19:20.351Z,99.90
2018-01-11T18:21:48.781Z,99.90
2018-01-11T18:24:16.581Z,99.90
2018-01-11T18:26:45.064Z,99.90
2018-01-11T18:29:13.474Z,99.90
2018-01-11T18:31:41.199Z,99.90
2018-01-11T18:34:08.884Z,99.90
2018-01-11T18:36:37.339Z,99.90
2018-01-11T18:39:05.028Z,99.90
2018-01-11T18:41:33.597Z,99.90
2018-01-11T18:44:02.135Z,99.90
2018-01-11T18:46:29.925Z,99.90
2018-01-11T18:48:57.766Z,99.90
2018-01-11T18:51:25.535Z,99.90
2018-01-11T18:53:53.242Z,99.90
2018-01-11T18:56:21.047Z,99.90
2018-01-11T18:58:48.878Z,99.90
2018-01-11T19:01:16.611Z,99.90
2018-01-11T19:03:45.159Z,99.90
2018-01-11T19:06:12.942Z,99.90
2018-01-11T19:08:40.674Z,99.90
2018-01-11T19:11:08.505Z,99.90
2018-01-11T19:13:37.068Z,99.90
2018-01-11T19:16:05.605Z,99.90
2018-01-11T19:18:33.507Z,99.90
2018-01-11T19:21:01.240Z,99.90
2018-01-11T19:23:28.881Z,99.90
2018-01-11T19:25:57.397Z,99.90
2018-01-11T19:28:25.019Z,99.90
2018-01-11T19:30:53.440Z,99.90
2018-01-11T19:33:21.156Z,99.90
2018-01-11T19:35:49.564Z,99.90
2018-01-11T19:38:17.285Z,99.90
2018-01-11T19:40:45.039Z,99.90
2018-01-11T19:43:12.683Z,99.90
2018-01-11T19:45:40.374Z,99.90
2018-01-11T19:48:08.110Z,99.90
2018-01-11T19:50:35.768Z,99.90
2018-01-11T19:53:04.223Z,99.90
2018-01-11T19:55:31.896Z,99.90
2018-01-11T19:57:59.602Z,99.90
2018-01-11T20:00:27.298Z,99.90
2018-01-11T20:02:55.042Z,99.90
2018-01-11T20:05:23.444Z,99.90
2018-01-11T20:07:51.231Z,99.90
2018-01-11T20:10:19.829Z,99.90
2018-01-11T20:12:48.375Z,99.90
2018-01-11T20:15:16.119Z,99.90
2018-01-11T20:17:44.015Z,99.90
2018-01-11T20:20:11.866Z,99.90
2018-01-11T20:22:39.601Z,99.90
2018-01-11T20:25:07.361Z,99.90
2018-01-11T20:27:36.001Z,99.90
2018-01-11T20:30:03.667Z,99.90
2018-01-11T20:32:32.252Z,99.90
2018-01-11T20:35:00.841Z,99.90
2018-01-11T20:37:28.644Z,99.90
2018-01-11T20:39:57.172Z,99.90
2018-01-11T20:42:25.067Z,99.90
2018-01-11T20:44:52.829Z,99.90
2018-01-11T20:47:20.659Z,99.90
2018-01-11T20:49:48.446Z,99.90
2018-01-11T20:52:16.226Z,99.90
2018-01-11T20:54:43.944Z,99.90
2018-01-11T20:57:11.589Z,99.90
2018-01-11T20:59:40.008Z,99.90
2018-01-11T21:02:07.709Z,99.90
2018-01-11T21:04:35.396Z,99.90
2018-01-11T21:07:03.834Z,99.90
2018-01-11T21:09:31.537Z,99.90
2018-01-11T21:11:59.983Z,99.90
2018-01-11T21:14:27.686Z,99.90
2018-01-11T21:16:56.104Z,99.90
2018-01-11T21:19:23.790Z,99.90
2018-01-11T21:21:51.639Z,99.90
2018-01-11T21:24:19.422Z,99.90
2018-01-11T21:26:47.249Z,99.90
2018-01-11T21:29:15.098Z,99.90
2018-01-11T21:31:42.805Z,99.90
2018-01-11T21:34:10.526Z,99.90
2018-01-11T21:36:38.196Z,99.90
2018-01-11T21:39:05.910Z,99.90
2018-01-11T21:41:33.611Z,99.90
2018-01-11T21:44:02.098Z,99.90
2018-01-11T21:46:29.743Z,99.90
2018-01-11T21:48:58.228Z,99.90
2018-01-11T21:51:26.644Z,99.90
2018-01-11T21:53:54.316Z,99.90
2018-01-11T21:56:22.052Z,99.90
2018-01-11T21:58:49.721Z,99.90
2018-01-11T22:01:17.419Z,99.90
2018-01-11T22:03:45.898Z,99.90
2018-01-11T22:06:13.578Z,99.90
2018-01-11T22:08:41.207Z,99.90
2018-01-11T22:11:08.888Z,99.90
2018-01-11T22:13:36.582Z,99.90
2018-01-11T22:16:05.023Z,99.90
2018-01-11T22:18:32.712Z,99.90
2018-01-11T22:21:00.371Z,99.90
2018-01-11T22:23:28.027Z,99.90
2018-01-11T22:25:55.772Z,99.90
2018-01-11T22:28:23.404Z,99.90
2018-01-11T22:30:51.126Z,99.90
2018-01-11T22:33:19.610Z,99.90
2018-01-11T22:35:48.066Z,99.90
2018-01-11T22:38:15.783Z,99.90
2018-01-11T22:40:43.487Z,99.90
2018-01-11T22:43:11.247Z,99.90
2018-01-11T22:45:38.885Z,99.90
2018-01-11T22:48:06.603Z,99.90
2018-01-11T22:50:35.120Z,99.90
2018-01-11T22:53:02.804Z,99.90
2018-01-11T22:55:30.473Z,99.90
2018-01-11T22:57:58.190Z,99.90
2018-01-11T23:00:26.597Z,99.90
2018-01-11T23:02:54.223Z,99.90
2018-01-11T23:05:22.705Z,99.90
2018-01-11T23:07:51.153Z,99.90
2018-01-11T23:10:18.879Z,99.90
2018-01-11T23:12:46.508Z,99.90
2018-01-11T23:15:14.923Z,99.90
2018-01-11T23:17:42.638Z,99.90
2018-01-11T23:20:10.324Z,99.90
2018-01-11T23:22:38.076Z,99.90
2018-01-11T23:25:06.518Z,99.90
2018-01-11T23:27:34.224Z,99.90
2018-01-11T23:30:02.671Z,99.90
2018-01-11T23:32:30.321Z,99.90
2018-01-11T23:34:58.004Z,99.90
2018-01-11T23:37:25.706Z,99.90
2018-01-11T23:39:54.340Z,99.90
2018-01-11T23:42:22.004Z,99.90
2018-01-11T23:44:49.661Z,99.90
2018-01-11T23:47:17.945Z,99.90
2018-01-11T23:49:46.209Z,99.90
2018-01-11T23:52:13.886Z,99.90
2018-01-11T23:54:41.604Z,99.90
2018-01-11T23:57:09.316Z,99.90
2018-01-11T23:59:37.005Z,99.90
